CheckWX is a tool to help pilots better visualize weather data.  It is not intended as a substitute for an official pre-flight weather briefing.

17:16:50 UTC

21D METAR
Lake Elmo Airport
St Paul, Minnesota, USA
Current

22 mins ago

K21D 131655Z AUTO 17004KT 1 1/4SM -SN OVC013 M05/M07 A2995 RMK AO2
Observed
Nov-13 @ 16:55 UTC
Wind
  • 170° at 4 KTS
Visibility
1 1/4 SM
Flight Rules
IFR
Conditions
Light Snow
Cloud Levels
  • Overcast at 1,300' AGL
Temperature
-5°C / 23°F
Dewpoint
-7°C / 19°F
Humidity
86%
Altimeter
29.95" Hg
Pressure
1014.22 hPa
Previous

40 mins ago

K21D 131637Z AUTO 17006KT 1 1/4SM -SN BKN013 M05/M07 A2994 RMK AO2
Observed
Nov-13 @ 16:37 UTC
Wind
  • 170° at 6 KTS
Visibility
1 1/4 SM
Flight Rules
IFR
Conditions
Light Snow
Cloud Levels
  • Broken at 1,300' AGL
Temperature
-5°C / 23°F
Dewpoint
-7°C / 19°F
Humidity
86%
Altimeter
29.94" Hg
Pressure
1013.92 hPa
Previous

57 mins ago

K21D 131620Z AUTO 16006KT 1 1/2SM -SN OVC015 M05/M07 A2994 RMK AO2
Observed
Nov-13 @ 16:20 UTC
Wind
  • 160° at 6 KTS
Visibility
1 1/2 SM
Flight Rules
IFR
Conditions
Light Snow
Cloud Levels
  • Overcast at 1,500' AGL
Temperature
-5°C / 23°F
Dewpoint
-7°C / 19°F
Humidity
86%
Altimeter
29.94" Hg
Pressure
1013.92 hPa